sensor_id;sensor_type;location;lat;lon;timestamp;P1;durP1;ratioP1;P2;durP2;ratioP2
25331;SDS011;13284;52.748;13.452;2023-02-17T00:01:18;23.97;;;15.00;;
25331;SDS011;13284;52.748;13.452;2023-02-17T00:03:50;21.33;;;13.90;;
25331;SDS011;13284;52.748;13.452;2023-02-17T00:06:16;31.83;;;16.43;;
25331;SDS011;13284;52.748;13.452;2023-02-17T00:08:44;23.20;;;16.10;;
25331;SDS011;13284;52.748;13.452;2023-02-17T00:11:10;24.83;;;15.30;;
25331;SDS011;13284;52.748;13.452;2023-02-17T00:13:36;24.43;;;15.57;;
25331;SDS011;13284;52.748;13.452;2023-02-17T00:16:09;26.80;;;16.03;;
25331;SDS011;13284;52.748;13.452;2023-02-17T00:18:36;22.77;;;14.60;;
25331;SDS011;13284;52.748;13.452;2023-02-17T00:21:15;25.07;;;15.80;;
25331;SDS011;13284;52.748;13.452;2023-02-17T00:23:44;26.87;;;16.23;;
25331;SDS011;13284;52.748;13.452;2023-02-17T00:26:10;29.00;;;17.83;;
25331;SDS011;13284;52.748;13.452;2023-02-17T00:28:36;24.07;;;15.27;;
25331;SDS011;13284;52.748;13.452;2023-02-17T00:31:05;25.80;;;16.37;;
25331;SDS011;13284;52.748;13.452;2023-02-17T00:33:32;25.40;;;16.90;;
25331;SDS011;13284;52.748;13.452;2023-02-17T00:35:57;24.50;;;16.63;;
25331;SDS011;13284;52.748;13.452;2023-02-17T00:38:23;27.80;;;17.47;;
25331;SDS011;13284;52.748;13.452;2023-02-17T00:40:49;30.77;;;18.20;;
25331;SDS011;13284;52.748;13.452;2023-02-17T00:43:14;30.20;;;18.10;;
25331;SDS011;13284;52.748;13.452;2023-02-17T00:45:40;29.30;;;18.47;;
25331;SDS011;13284;52.748;13.452;2023-02-17T00:48:05;27.50;;;16.17;;
25331;SDS011;13284;52.748;13.452;2023-02-17T00:50:31;28.67;;;18.00;;
25331;SDS011;13284;52.748;13.452;2023-02-17T00:52:56;28.77;;;17.67;;
25331;SDS011;13284;52.748;13.452;2023-02-17T00:55:22;32.47;;;18.10;;
25331;SDS011;13284;52.748;13.452;2023-02-17T00:57:47;29.57;;;19.03;;
25331;SDS011;13284;52.748;13.452;2023-02-17T01:00:13;28.63;;;18.10;;
25331;SDS011;13284;52.748;13.452;2023-02-17T01:02:39;26.77;;;17.63;;
25331;SDS011;13284;52.748;13.452;2023-02-17T01:05:04;25.80;;;16.87;;
25331;SDS011;13284;52.748;13.452;2023-02-17T01:07:30;28.27;;;17.50;;
25331;SDS011;13284;52.748;13.452;2023-02-17T01:09:56;28.17;;;16.40;;
25331;SDS011;13284;52.748;13.452;2023-02-17T01:12:21;28.20;;;17.20;;
25331;SDS011;13284;52.748;13.452;2023-02-17T01:14:47;32.07;;;20.20;;
25331;SDS011;13284;52.748;13.452;2023-02-17T01:17:13;30.67;;;18.13;;
25331;SDS011;13284;52.748;13.452;2023-02-17T01:19:38;33.93;;;19.07;;
25331;SDS011;13284;52.748;13.452;2023-02-17T01:22:04;26.97;;;17.40;;
25331;SDS011;13284;52.748;13.452;2023-02-17T01:24:29;33.73;;;19.80;;
25331;SDS011;13284;52.748;13.452;2023-02-17T01:26:55;26.63;;;17.47;;
25331;SDS011;13284;52.748;13.452;2023-02-17T01:29:20;29.10;;;16.43;;
25331;SDS011;13284;52.748;13.452;2023-02-17T01:31:46;29.13;;;19.00;;
25331;SDS011;13284;52.748;13.452;2023-02-17T01:34:11;28.83;;;16.17;;
25331;SDS011;13284;52.748;13.452;2023-02-17T01:36:37;28.10;;;17.83;;
25331;SDS011;13284;52.748;13.452;2023-02-17T01:39:02;25.60;;;16.30;;
25331;SDS011;13284;52.748;13.452;2023-02-17T01:41:28;29.30;;;17.27;;
25331;SDS011;13284;52.748;13.452;2023-02-17T01:44:04;30.67;;;17.80;;
25331;SDS011;13284;52.748;13.452;2023-02-17T01:46:35;27.90;;;16.40;;
25331;SDS011;13284;52.748;13.452;2023-02-17T01:49:02;33.00;;;16.07;;
25331;SDS011;13284;52.748;13.452;2023-02-17T01:51:33;25.10;;;17.47;;
25331;SDS011;13284;52.748;13.452;2023-02-17T01:54:04;28.10;;;17.40;;
25331;SDS011;13284;52.748;13.452;2023-02-17T01:56:36;29.63;;;16.20;;
25331;SDS011;13284;52.748;13.452;2023-02-17T01:59:06;29.23;;;18.80;;
25331;SDS011;13284;52.748;13.452;2023-02-17T02:01:35;31.70;;;19.90;;
25331;SDS011;13284;52.748;13.452;2023-02-17T02:04:03;28.97;;;18.57;;
25331;SDS011;13284;52.748;13.452;2023-02-17T02:06:29;23.73;;;17.47;;
25331;SDS011;13284;52.748;13.452;2023-02-17T02:09:05;32.63;;;18.17;;
25331;SDS011;13284;52.748;13.452;2023-02-17T02:11:35;29.70;;;18.30;;
25331;SDS011;13284;52.748;13.452;2023-02-17T02:14:01;27.80;;;17.83;;
25331;SDS011;13284;52.748;13.452;2023-02-17T02:16:52;27.10;;;16.00;;
25331;SDS011;13284;52.748;13.452;2023-02-17T02:25:15;31.00;;;18.33;;
25331;SDS011;13284;52.748;13.452;2023-02-17T02:34:08;24.90;;;15.00;;
25331;SDS011;13284;52.748;13.452;2023-02-17T02:36:43;33.03;;;19.23;;
25331;SDS011;13284;52.748;13.452;2023-02-17T02:39:22;24.77;;;17.40;;
25331;SDS011;13284;52.748;13.452;2023-02-17T02:41:53;32.00;;;18.67;;
25331;SDS011;13284;52.748;13.452;2023-02-17T02:44:22;31.33;;;17.40;;
25331;SDS011;13284;52.748;13.452;2023-02-17T02:47:04;29.17;;;16.37;;
25331;SDS011;13284;52.748;13.452;2023-02-17T02:49:51;27.97;;;17.23;;
25331;SDS011;13284;52.748;13.452;2023-02-17T02:55:03;28.80;;;18.17;;
25331;SDS011;13284;52.748;13.452;2023-02-17T02:57:51;24.97;;;16.53;;
25331;SDS011;13284;52.748;13.452;2023-02-17T03:00:32;27.57;;;16.93;;
25331;SDS011;13284;52.748;13.452;2023-02-17T03:03:28;30.53;;;16.20;;
25331;SDS011;13284;52.748;13.452;2023-02-17T03:06:19;29.20;;;16.50;;
25331;SDS011;13284;52.748;13.452;2023-02-17T03:09:03;28.07;;;17.00;;
25331;SDS011;13284;52.748;13.452;2023-02-17T03:11:32;29.13;;;17.60;;
25331;SDS011;13284;52.748;13.452;2023-02-17T03:14:03;29.47;;;18.70;;
25331;SDS011;13284;52.748;13.452;2023-02-17T03:16:31;30.77;;;17.83;;
25331;SDS011;13284;52.748;13.452;2023-02-17T03:18:58;28.67;;;17.47;;
25331;SDS011;13284;52.748;13.452;2023-02-17T03:21:24;26.20;;;16.63;;
25331;SDS011;13284;52.748;13.452;2023-02-17T03:23:53;30.77;;;17.40;;
25331;SDS011;13284;52.748;13.452;2023-02-17T03:26:18;29.23;;;17.40;;
25331;SDS011;13284;52.748;13.452;2023-02-17T03:28:44;30.47;;;19.00;;
25331;SDS011;13284;52.748;13.452;2023-02-17T03:31:09;27.60;;;17.37;;
25331;SDS011;13284;52.748;13.452;2023-02-17T03:33:35;33.43;;;19.30;;
25331;SDS011;13284;52.748;13.452;2023-02-17T03:36:00;26.73;;;15.93;;
25331;SDS011;13284;52.748;13.452;2023-02-17T03:38:26;28.07;;;17.80;;
25331;SDS011;13284;52.748;13.452;2023-02-17T03:40:51;30.97;;;19.10;;
25331;SDS011;13284;52.748;13.452;2023-02-17T03:43:17;27.53;;;16.87;;
25331;SDS011;13284;52.748;13.452;2023-02-17T03:45:43;27.40;;;16.70;;
25331;SDS011;13284;52.748;13.452;2023-02-17T03:48:08;28.70;;;18.33;;
25331;SDS011;13284;52.748;13.452;2023-02-17T03:50:34;22.80;;;14.67;;
25331;SDS011;13284;52.748;13.452;2023-02-17T03:52:59;24.63;;;16.83;;
25331;SDS011;13284;52.748;13.452;2023-02-17T03:55:25;24.67;;;15.83;;
25331;SDS011;13284;52.748;13.452;2023-02-17T03:57:51;23.90;;;15.80;;
25331;SDS011;13284;52.748;13.452;2023-02-17T04:00:16;27.03;;;15.53;;
25331;SDS011;13284;52.748;13.452;2023-02-17T04:02:42;25.53;;;16.30;;
25331;SDS011;13284;52.748;13.452;2023-02-17T04:05:08;22.73;;;14.90;;
25331;SDS011;13284;52.748;13.452;2023-02-17T04:07:33;24.37;;;15.70;;
25331;SDS011;13284;52.748;13.452;2023-02-17T04:09:59;20.90;;;14.10;;
25331;SDS011;13284;52.748;13.452;2023-02-17T04:12:24;22.10;;;15.33;;
25331;SDS011;13284;52.748;13.452;2023-02-17T04:14:50;25.37;;;15.30;;
25331;SDS011;13284;52.748;13.452;2023-02-17T04:17:15;23.00;;;14.40;;
25331;SDS011;13284;52.748;13.452;2023-02-17T04:19:41;24.07;;;15.47;;
25331;SDS011;13284;52.748;13.452;2023-02-17T04:22:06;23.40;;;14.60;;
25331;SDS011;13284;52.748;13.452;2023-02-17T04:24:33;20.23;;;13.23;;
25331;SDS011;13284;52.748;13.452;2023-02-17T04:27:00;19.43;;;12.77;;
25331;SDS011;13284;52.748;13.452;2023-02-17T04:29:26;21.10;;;14.70;;
25331;SDS011;13284;52.748;13.452;2023-02-17T04:31:51;22.10;;;14.07;;
25331;SDS011;13284;52.748;13.452;2023-02-17T04:34:16;23.60;;;12.80;;
25331;SDS011;13284;52.748;13.452;2023-02-17T04:36:42;20.10;;;13.20;;
25331;SDS011;13284;52.748;13.452;2023-02-17T04:39:07;18.70;;;13.17;;
25331;SDS011;13284;52.748;13.452;2023-02-17T04:41:33;22.13;;;13.50;;
25331;SDS011;13284;52.748;13.452;2023-02-17T04:43:58;19.03;;;13.33;;
25331;SDS011;13284;52.748;13.452;2023-02-17T04:46:24;22.90;;;13.27;;
25331;SDS011;13284;52.748;13.452;2023-02-17T04:48:50;15.67;;;12.00;;
25331;SDS011;13284;52.748;13.452;2023-02-17T04:51:15;19.63;;;11.87;;
25331;SDS011;13284;52.748;13.452;2023-02-17T04:53:41;19.47;;;13.87;;
25331;SDS011;13284;52.748;13.452;2023-02-17T04:56:06;18.83;;;12.50;;
25331;SDS011;13284;52.748;13.452;2023-02-17T04:58:32;17.80;;;13.20;;
25331;SDS011;13284;52.748;13.452;2023-02-17T05:00:57;17.07;;;11.40;;
25331;SDS011;13284;52.748;13.452;2023-02-17T05:03:24;21.43;;;12.53;;
25331;SDS011;13284;52.748;13.452;2023-02-17T05:05:50;15.40;;;10.57;;
25331;SDS011;13284;52.748;13.452;2023-02-17T05:08:15;21.40;;;12.77;;
25331;SDS011;13284;52.748;13.452;2023-02-17T05:10:41;16.97;;;11.87;;
25331;SDS011;13284;52.748;13.452;2023-02-17T05:13:06;20.20;;;11.73;;
25331;SDS011;13284;52.748;13.452;2023-02-17T05:15:32;19.80;;;13.10;;
25331;SDS011;13284;52.748;13.452;2023-02-17T05:17:57;17.07;;;11.23;;
25331;SDS011;13284;52.748;13.452;2023-02-17T05:20:23;21.00;;;13.03;;
25331;SDS011;13284;52.748;13.452;2023-02-17T05:22:48;17.20;;;10.90;;
25331;SDS011;13284;52.748;13.452;2023-02-17T05:25:14;24.37;;;13.57;;
25331;SDS011;13284;52.748;13.452;2023-02-17T05:27:39;19.33;;;11.40;;
25331;SDS011;13284;52.748;13.452;2023-02-17T05:30:05;22.67;;;14.27;;
25331;SDS011;13284;52.748;13.452;2023-02-17T05:32:31;19.90;;;14.70;;
25331;SDS011;13284;52.748;13.452;2023-02-17T05:34:56;18.23;;;12.87;;
25331;SDS011;13284;52.748;13.452;2023-02-17T05:37:22;19.80;;;13.20;;
25331;SDS011;13284;52.748;13.452;2023-02-17T05:39:47;20.60;;;13.10;;
25331;SDS011;13284;52.748;13.452;2023-02-17T05:42:13;18.40;;;12.77;;
25331;SDS011;13284;52.748;13.452;2023-02-17T05:44:38;21.07;;;14.83;;
25331;SDS011;13284;52.748;13.452;2023-02-17T05:47:04;20.97;;;14.80;;
25331;SDS011;13284;52.748;13.452;2023-02-17T05:49:29;19.27;;;12.67;;
25331;SDS011;13284;52.748;13.452;2023-02-17T05:51:55;19.90;;;13.80;;
25331;SDS011;13284;52.748;13.452;2023-02-17T05:54:20;26.90;;;14.37;;
25331;SDS011;13284;52.748;13.452;2023-02-17T05:56:46;14.27;;;8.20;;
25331;SDS011;13284;52.748;13.452;2023-02-17T05:59:12;20.17;;;12.93;;
25331;SDS011;13284;52.748;13.452;2023-02-17T06:01:37;15.93;;;12.13;;
25331;SDS011;13284;52.748;13.452;2023-02-17T06:04:03;17.67;;;13.27;;
25331;SDS011;13284;52.748;13.452;2023-02-17T06:06:29;21.67;;;14.03;;
25331;SDS011;13284;52.748;13.452;2023-02-17T06:08:54;21.00;;;14.70;;
25331;SDS011;13284;52.748;13.452;2023-02-17T06:11:20;20.77;;;14.43;;
25331;SDS011;13284;52.748;13.452;2023-02-17T06:13:45;20.83;;;12.80;;
25331;SDS011;13284;52.748;13.452;2023-02-17T06:16:11;24.93;;;15.03;;
25331;SDS011;13284;52.748;13.452;2023-02-17T06:18:36;19.20;;;13.87;;
25331;SDS011;13284;52.748;13.452;2023-02-17T06:21:02;22.10;;;14.63;;
25331;SDS011;13284;52.748;13.452;2023-02-17T06:23:27;22.70;;;13.97;;
25331;SDS011;13284;52.748;13.452;2023-02-17T06:25:53;20.27;;;12.07;;
25331;SDS011;13284;52.748;13.452;2023-02-17T06:28:19;22.67;;;15.20;;
25331;SDS011;13284;52.748;13.452;2023-02-17T06:30:44;17.30;;;10.67;;
25331;SDS011;13284;52.748;13.452;2023-02-17T06:33:10;22.93;;;15.50;;
25331;SDS011;13284;52.748;13.452;2023-02-17T06:35:36;21.00;;;15.30;;
25331;SDS011;13284;52.748;13.452;2023-02-17T06:38:01;20.17;;;13.30;;
25331;SDS011;13284;52.748;13.452;2023-02-17T06:40:27;18.13;;;12.97;;
25331;SDS011;13284;52.748;13.452;2023-02-17T06:42:52;20.90;;;13.20;;
25331;SDS011;13284;52.748;13.452;2023-02-17T06:45:18;21.70;;;14.37;;
25331;SDS011;13284;52.748;13.452;2023-02-17T06:47:43;22.30;;;15.13;;
25331;SDS011;13284;52.748;13.452;2023-02-17T06:50:09;23.93;;;14.73;;
25331;SDS011;13284;52.748;13.452;2023-02-17T06:52:35;20.40;;;13.00;;
25331;SDS011;13284;52.748;13.452;2023-02-17T06:55:01;23.10;;;13.43;;
25331;SDS011;13284;52.748;13.452;2023-02-17T06:57:27;21.43;;;13.37;;
25331;SDS011;13284;52.748;13.452;2023-02-17T06:59:52;21.30;;;13.07;;
25331;SDS011;13284;52.748;13.452;2023-02-17T07:02:18;20.00;;;12.90;;
25331;SDS011;13284;52.748;13.452;2023-02-17T07:04:43;24.37;;;13.80;;
25331;SDS011;13284;52.748;13.452;2023-02-17T07:07:09;23.03;;;13.70;;
25331;SDS011;13284;52.748;13.452;2023-02-17T07:09:35;24.53;;;15.20;;
25331;SDS011;13284;52.748;13.452;2023-02-17T07:12:02;20.37;;;12.63;;
25331;SDS011;13284;52.748;13.452;2023-02-17T07:14:28;19.10;;;13.80;;
25331;SDS011;13284;52.748;13.452;2023-02-17T07:16:53;21.53;;;13.83;;
25331;SDS011;13284;52.748;13.452;2023-02-17T07:19:19;20.20;;;12.83;;
25331;SDS011;13284;52.748;13.452;2023-02-17T07:21:45;24.37;;;14.43;;
25331;SDS011;13284;52.748;13.452;2023-02-17T07:24:11;19.17;;;13.50;;
25331;SDS011;13284;52.748;13.452;2023-02-17T07:26:37;19.83;;;14.27;;
25331;SDS011;13284;52.748;13.452;2023-02-17T07:29:04;18.50;;;11.87;;
25331;SDS011;13284;52.748;13.452;2023-02-17T07:31:31;19.53;;;13.33;;
25331;SDS011;13284;52.748;13.452;2023-02-17T07:33:57;21.03;;;14.80;;
25331;SDS011;13284;52.748;13.452;2023-02-17T07:36:22;18.73;;;13.20;;
25331;SDS011;13284;52.748;13.452;2023-02-17T07:38:48;16.90;;;12.03;;
25331;SDS011;13284;52.748;13.452;2023-02-17T07:41:18;18.67;;;13.13;;
25331;SDS011;13284;52.748;13.452;2023-02-17T07:43:45;18.43;;;12.53;;
25331;SDS011;13284;52.748;13.452;2023-02-17T07:46:12;18.50;;;10.83;;
25331;SDS011;13284;52.748;13.452;2023-02-17T07:48:38;19.70;;;11.90;;
25331;SDS011;13284;52.748;13.452;2023-02-17T07:51:05;21.03;;;12.10;;
25331;SDS011;13284;52.748;13.452;2023-02-17T07:53:32;18.77;;;12.07;;
25331;SDS011;13284;52.748;13.452;2023-02-17T07:55:58;21.80;;;11.67;;
25331;SDS011;13284;52.748;13.452;2023-02-17T07:58:26;16.90;;;11.47;;
25331;SDS011;13284;52.748;13.452;2023-02-17T08:00:51;16.33;;;11.90;;
25331;SDS011;13284;52.748;13.452;2023-02-17T08:03:16;18.67;;;10.33;;
25331;SDS011;13284;52.748;13.452;2023-02-17T08:05:42;17.70;;;11.77;;
25331;SDS011;13284;52.748;13.452;2023-02-17T08:08:08;15.07;;;10.27;;
25331;SDS011;13284;52.748;13.452;2023-02-17T08:10:52;15.33;;;10.97;;
25331;SDS011;13284;52.748;13.452;2023-02-17T08:13:36;17.13;;;11.40;;
25331;SDS011;13284;52.748;13.452;2023-02-17T08:16:02;14.53;;;10.23;;
25331;SDS011;13284;52.748;13.452;2023-02-17T08:18:27;17.13;;;11.03;;
25331;SDS011;13284;52.748;13.452;2023-02-17T08:20:53;17.37;;;12.27;;
25331;SDS011;13284;52.748;13.452;2023-02-17T08:23:19;18.77;;;11.77;;
25331;SDS011;13284;52.748;13.452;2023-02-17T08:25:45;18.17;;;11.87;;
25331;SDS011;13284;52.748;13.452;2023-02-17T08:28:11;16.90;;;10.87;;
25331;SDS011;13284;52.748;13.452;2023-02-17T08:30:37;16.80;;;11.30;;
25331;SDS011;13284;52.748;13.452;2023-02-17T08:33:03;17.40;;;12.60;;
25331;SDS011;13284;52.748;13.452;2023-02-17T08:35:30;15.53;;;10.57;;
25331;SDS011;13284;52.748;13.452;2023-02-17T08:37:56;16.00;;;11.53;;
25331;SDS011;13284;52.748;13.452;2023-02-17T08:40:22;17.80;;;11.40;;
25331;SDS011;13284;52.748;13.452;2023-02-17T08:42:48;16.47;;;11.50;;
25331;SDS011;13284;52.748;13.452;2023-02-17T08:45:14;17.40;;;11.63;;
25331;SDS011;13284;52.748;13.452;2023-02-17T08:47:40;14.93;;;10.07;;
25331;SDS011;13284;52.748;13.452;2023-02-17T08:50:06;16.10;;;11.10;;
25331;SDS011;13284;52.748;13.452;2023-02-17T08:52:33;15.70;;;10.40;;
25331;SDS011;13284;52.748;13.452;2023-02-17T08:55:00;15.57;;;9.97;;
25331;SDS011;13284;52.748;13.452;2023-02-17T08:57:26;19.73;;;11.50;;
25331;SDS011;13284;52.748;13.452;2023-02-17T08:59:52;14.10;;;10.33;;
25331;SDS011;13284;52.748;13.452;2023-02-17T09:02:17;14.27;;;10.27;;
25331;SDS011;13284;52.748;13.452;2023-02-17T09:04:46;13.30;;;9.07;;
25331;SDS011;13284;52.748;13.452;2023-02-17T09:07:12;16.63;;;11.57;;
25331;SDS011;13284;52.748;13.452;2023-02-17T09:09:40;13.10;;;9.90;;
25331;SDS011;13284;52.748;13.452;2023-02-17T09:12:06;13.93;;;10.20;;
25331;SDS011;13284;52.748;13.452;2023-02-17T09:14:32;13.47;;;9.40;;
25331;SDS011;13284;52.748;13.452;2023-02-17T09:16:58;12.23;;;9.10;;
25331;SDS011;13284;52.748;13.452;2023-02-17T09:19:23;14.07;;;10.07;;
25331;SDS011;13284;52.748;13.452;2023-02-17T09:21:49;14.20;;;9.57;;
25331;SDS011;13284;52.748;13.452;2023-02-17T09:24:15;13.80;;;9.80;;
25331;SDS011;13284;52.748;13.452;2023-02-17T09:26:41;13.20;;;8.90;;
25331;SDS011;13284;52.748;13.452;2023-02-17T09:29:07;13.90;;;9.80;;
25331;SDS011;13284;52.748;13.452;2023-02-17T09:31:33;13.90;;;10.07;;
25331;SDS011;13284;52.748;13.452;2023-02-17T09:34:00;11.80;;;8.30;;
25331;SDS011;13284;52.748;13.452;2023-02-17T09:36:27;12.57;;;8.90;;
25331;SDS011;13284;52.748;13.452;2023-02-17T09:38:55;14.50;;;9.73;;
25331;SDS011;13284;52.748;13.452;2023-02-17T09:41:41;12.70;;;8.97;;
25331;SDS011;13284;52.748;13.452;2023-02-17T09:44:51;12.73;;;9.17;;
25331;SDS011;13284;52.748;13.452;2023-02-17T09:47:21;13.50;;;9.50;;
25331;SDS011;13284;52.748;13.452;2023-02-17T09:49:56;11.27;;;8.30;;
25331;SDS011;13284;52.748;13.452;2023-02-17T09:52:35;15.13;;;10.00;;
25331;SDS011;13284;52.748;13.452;2023-02-17T09:55:35;12.70;;;8.87;;
25331;SDS011;13284;52.748;13.452;2023-02-17T09:58:11;14.43;;;9.50;;
25331;SDS011;13284;52.748;13.452;2023-02-17T10:00:50;13.60;;;8.53;;
25331;SDS011;13284;52.748;13.452;2023-02-17T10:03:22;15.37;;;9.93;;
25331;SDS011;13284;52.748;13.452;2023-02-17T10:11:53;13.90;;;10.60;;
25331;SDS011;13284;52.748;13.452;2023-02-17T10:14:03;16.53;;;10.27;;
25331;SDS011;13284;52.748;13.452;2023-02-17T10:16:35;13.63;;;10.30;;
25331;SDS011;13284;52.748;13.452;2023-02-17T10:19:22;14.13;;;9.90;;
25331;SDS011;13284;52.748;13.452;2023-02-17T10:24:44;14.20;;;10.73;;
25331;SDS011;13284;52.748;13.452;2023-02-17T10:27:13;14.63;;;10.80;;
25331;SDS011;13284;52.748;13.452;2023-02-17T10:32:35;14.83;;;10.03;;
25331;SDS011;13284;52.748;13.452;2023-02-17T10:35:14;8.80;;;7.27;;
25331;SDS011;13284;52.748;13.452;2023-02-17T10:40:23;13.67;;;9.20;;
25331;SDS011;13284;52.748;13.452;2023-02-17T10:42:54;14.40;;;10.57;;
25331;SDS011;13284;52.748;13.452;2023-02-17T10:48:44;15.10;;;9.20;;
25331;SDS011;13284;52.748;13.452;2023-02-17T10:51:02;13.63;;;10.60;;
25331;SDS011;13284;52.748;13.452;2023-02-17T10:53:35;12.73;;;9.90;;
25331;SDS011;13284;52.748;13.452;2023-02-17T10:56:14;11.43;;;9.60;;
25331;SDS011;13284;52.748;13.452;2023-02-17T10:58:47;15.50;;;10.37;;
25331;SDS011;13284;52.748;13.452;2023-02-17T11:01:17;13.53;;;10.47;;
25331;SDS011;13284;52.748;13.452;2023-02-17T11:03:42;15.70;;;9.57;;
25331;SDS011;13284;52.748;13.452;2023-02-17T11:06:14;17.07;;;11.50;;
25331;SDS011;13284;52.748;13.452;2023-02-17T11:08:50;13.80;;;10.40;;
25331;SDS011;13284;52.748;13.452;2023-02-17T11:11:22;13.53;;;10.40;;
25331;SDS011;13284;52.748;13.452;2023-02-17T11:16:24;14.07;;;10.07;;
25331;SDS011;13284;52.748;13.452;2023-02-17T11:18:52;13.00;;;9.70;;
25331;SDS011;13284;52.748;13.452;2023-02-17T11:21:19;10.43;;;8.17;;
25331;SDS011;13284;52.748;13.452;2023-02-17T11:23:46;16.63;;;10.70;;
25331;SDS011;13284;52.748;13.452;2023-02-17T11:26:23;18.27;;;10.97;;
25331;SDS011;13284;52.748;13.452;2023-02-17T11:28:51;12.67;;;8.90;;
25331;SDS011;13284;52.748;13.452;2023-02-17T11:31:24;12.97;;;9.67;;
25331;SDS011;13284;52.748;13.452;2023-02-17T11:33:54;16.20;;;11.43;;
25331;SDS011;13284;52.748;13.452;2023-02-17T11:36:22;14.73;;;10.40;;
25331;SDS011;13284;52.748;13.452;2023-02-17T11:38:52;15.03;;;10.57;;
25331;SDS011;13284;52.748;13.452;2023-02-17T11:41:18;16.00;;;11.30;;
25331;SDS011;13284;52.748;13.452;2023-02-17T11:43:54;16.77;;;11.17;;
25331;SDS011;13284;52.748;13.452;2023-02-17T11:46:30;12.20;;;9.37;;
25331;SDS011;13284;52.748;13.452;2023-02-17T11:54:25;14.63;;;9.37;;
25331;SDS011;13284;52.748;13.452;2023-02-17T12:00:01;13.67;;;11.10;;
25331;SDS011;13284;52.748;13.452;2023-02-17T12:05:41;14.13;;;8.17;;
25331;SDS011;13284;52.748;13.452;2023-02-17T12:08:44;12.00;;;7.93;;
25331;SDS011;13284;52.748;13.452;2023-02-17T12:11:18;15.80;;;9.47;;
25331;SDS011;13284;52.748;13.452;2023-02-17T12:16:44;13.80;;;10.50;;
25331;SDS011;13284;52.748;13.452;2023-02-17T12:21:51;11.73;;;9.13;;
25331;SDS011;13284;52.748;13.452;2023-02-17T12:24:34;15.90;;;11.10;;
25331;SDS011;13284;52.748;13.452;2023-02-17T12:33:10;15.87;;;10.23;;
25331;SDS011;13284;52.748;13.452;2023-02-17T12:36:06;14.83;;;10.83;;
25331;SDS011;13284;52.748;13.452;2023-02-17T12:38:37;11.73;;;8.37;;
25331;SDS011;13284;52.748;13.452;2023-02-17T12:41:31;14.77;;;9.40;;
25331;SDS011;13284;52.748;13.452;2023-02-17T12:44:05;11.87;;;8.03;;
25331;SDS011;13284;52.748;13.452;2023-02-17T12:46:37;15.23;;;9.63;;
25331;SDS011;13284;52.748;13.452;2023-02-17T12:49:17;11.63;;;8.53;;
25331;SDS011;13284;52.748;13.452;2023-02-17T12:51:55;10.67;;;7.30;;
25331;SDS011;13284;52.748;13.452;2023-02-17T12:54:44;11.77;;;7.77;;
25331;SDS011;13284;52.748;13.452;2023-02-17T12:57:19;9.73;;;7.27;;
25331;SDS011;13284;52.748;13.452;2023-02-17T12:59:50;7.47;;;5.43;;
25331;SDS011;13284;52.748;13.452;2023-02-17T13:04:46;7.50;;;5.77;;
25331;SDS011;13284;52.748;13.452;2023-02-17T13:07:19;11.27;;;8.20;;
25331;SDS011;13284;52.748;13.452;2023-02-17T13:09:59;10.77;;;6.90;;
25331;SDS011;13284;52.748;13.452;2023-02-17T13:14:54;8.63;;;6.30;;
25331;SDS011;13284;52.748;13.452;2023-02-17T13:17:22;8.83;;;6.53;;
25331;SDS011;13284;52.748;13.452;2023-02-17T13:22:36;10.13;;;6.90;;
25331;SDS011;13284;52.748;13.452;2023-02-17T13:25:02;8.53;;;6.30;;
25331;SDS011;13284;52.748;13.452;2023-02-17T13:32:31;8.20;;;6.33;;
25331;SDS011;13284;52.748;13.452;2023-02-17T13:35:43;8.30;;;6.30;;
25331;SDS011;13284;52.748;13.452;2023-02-17T13:37:47;8.47;;;6.23;;
25331;SDS011;13284;52.748;13.452;2023-02-17T13:47:59;6.60;;;5.73;;
25331;SDS011;13284;52.748;13.452;2023-02-17T13:50:37;9.03;;;5.97;;
25331;SDS011;13284;52.748;13.452;2023-02-17T13:53:30;8.03;;;6.10;;
25331;SDS011;13284;52.748;13.452;2023-02-17T13:55:57;7.73;;;6.07;;
25331;SDS011;13284;52.748;13.452;2023-02-17T13:58:26;7.83;;;5.77;;
25331;SDS011;13284;52.748;13.452;2023-02-17T14:00:54;6.80;;;5.23;;
25331;SDS011;13284;52.748;13.452;2023-02-17T14:03:23;8.60;;;6.60;;
25331;SDS011;13284;52.748;13.452;2023-02-17T14:05:51;10.17;;;7.80;;
25331;SDS011;13284;52.748;13.452;2023-02-17T14:08:36;8.30;;;6.30;;
25331;SDS011;13284;52.748;13.452;2023-02-17T14:11:05;8.83;;;6.77;;
25331;SDS011;13284;52.748;13.452;2023-02-17T14:13:36;8.03;;;6.03;;
25331;SDS011;13284;52.748;13.452;2023-02-17T14:16:04;9.53;;;7.33;;
25331;SDS011;13284;52.748;13.452;2023-02-17T14:21:10;11.07;;;7.10;;
25331;SDS011;13284;52.748;13.452;2023-02-17T14:23:49;14.20;;;7.40;;
25331;SDS011;13284;52.748;13.452;2023-02-17T14:26:28;10.20;;;7.57;;
25331;SDS011;13284;52.748;13.452;2023-02-17T14:29:11;10.30;;;8.20;;
25331;SDS011;13284;52.748;13.452;2023-02-17T14:31:38;9.40;;;7.33;;
25331;SDS011;13284;52.748;13.452;2023-02-17T14:34:12;11.87;;;7.93;;
25331;SDS011;13284;52.748;13.452;2023-02-17T14:36:49;10.63;;;7.70;;
25331;SDS011;13284;52.748;13.452;2023-02-17T14:39:14;9.70;;;7.27;;
25331;SDS011;13284;52.748;13.452;2023-02-17T14:41:40;14.37;;;10.20;;
25331;SDS011;13284;52.748;13.452;2023-02-17T14:44:06;9.60;;;7.70;;
25331;SDS011;13284;52.748;13.452;2023-02-17T14:46:32;11.17;;;8.77;;
25331;SDS011;13284;52.748;13.452;2023-02-17T14:48:59;12.97;;;8.50;;
25331;SDS011;13284;52.748;13.452;2023-02-17T14:51:30;11.37;;;8.17;;
25331;SDS011;13284;52.748;13.452;2023-02-17T14:53:59;10.60;;;7.70;;
25331;SDS011;13284;52.748;13.452;2023-02-17T14:56:40;10.47;;;8.03;;
25331;SDS011;13284;52.748;13.452;2023-02-17T14:59:12;9.53;;;8.53;;
25331;SDS011;13284;52.748;13.452;2023-02-17T15:01:37;11.80;;;8.83;;
25331;SDS011;13284;52.748;13.452;2023-02-17T15:04:04;9.83;;;7.97;;
25331;SDS011;13284;52.748;13.452;2023-02-17T15:06:32;12.27;;;8.90;;
25331;SDS011;13284;52.748;13.452;2023-02-17T15:09:07;11.80;;;8.50;;
25331;SDS011;13284;52.748;13.452;2023-02-17T15:11:36;8.40;;;7.20;;
25331;SDS011;13284;52.748;13.452;2023-02-17T15:14:03;13.47;;;8.80;;
25331;SDS011;13284;52.748;13.452;2023-02-17T15:16:29;11.40;;;8.37;;
25331;SDS011;13284;52.748;13.452;2023-02-17T15:18:55;12.07;;;8.67;;
25331;SDS011;13284;52.748;13.452;2023-02-17T15:23:53;11.90;;;8.53;;
25331;SDS011;13284;52.748;13.452;2023-02-17T15:26:20;19.30;;;7.10;;
25331;SDS011;13284;52.748;13.452;2023-02-17T15:28:46;8.80;;;7.83;;
25331;SDS011;13284;52.748;13.452;2023-02-17T15:31:12;11.60;;;7.30;;
25331;SDS011;13284;52.748;13.452;2023-02-17T15:33:44;12.23;;;7.07;;
25331;SDS011;13284;52.748;13.452;2023-02-17T15:36:19;8.43;;;6.20;;
25331;SDS011;13284;52.748;13.452;2023-02-17T15:38:45;9.63;;;8.40;;
25331;SDS011;13284;52.748;13.452;2023-02-17T15:41:18;10.80;;;6.70;;
25331;SDS011;13284;52.748;13.452;2023-02-17T15:43:46;10.03;;;7.40;;
25331;SDS011;13284;52.748;13.452;2023-02-17T15:46:14;11.60;;;8.40;;
25331;SDS011;13284;52.748;13.452;2023-02-17T15:48:42;11.97;;;8.57;;